sensor_id;sensor_type;location;lat;lon;timestamp;P1;durP1;ratioP1;P2;durP2;ratioP2
1523;SDS011;755;53.658;10.118;2022-08-01T00:08:40;1999.90;;;999.90;;
1523;SDS011;755;53.658;10.118;2022-08-01T00:18:42;1999.90;;;999.90;;
1523;SDS011;755;53.658;10.118;2022-08-01T00:29:02;1999.90;;;999.90;;
1523;SDS011;755;53.658;10.118;2022-08-01T00:39:05;1999.90;;;999.90;;
1523;SDS011;755;53.658;10.118;2022-08-01T00:49:09;1999.90;;;999.90;;
1523;SDS011;755;53.658;10.118;2022-08-01T00:59:12;1999.90;;;999.90;;
1523;SDS011;755;53.658;10.118;2022-08-01T01:09:24;1999.90;;;999.90;;
1523;SDS011;755;53.658;10.118;2022-08-01T01:19:39;1999.90;;;999.90;;
1523;SDS011;755;53.658;10.118;2022-08-01T01:29:51;1999.90;;;999.90;;
1523;SDS011;755;53.658;10.118;2022-08-01T01:39:56;1999.90;;;999.90;;
1523;SDS011;755;53.658;10.118;2022-08-01T01:50:03;1999.90;;;999.90;;
1523;SDS011;755;53.658;10.118;2022-08-01T02:10:42;1999.90;;;999.90;;
1523;SDS011;755;53.658;10.118;2022-08-01T02:21:08;1999.90;;;999.90;;
1523;SDS011;755;53.658;10.118;2022-08-01T02:31:16;1999.90;;;999.90;;
1523;SDS011;755;53.658;10.118;2022-08-01T02:41:21;1999.90;;;999.90;;
1523;SDS011;755;53.658;10.118;2022-08-01T02:51:27;1999.90;;;999.90;;
1523;SDS011;755;53.658;10.118;2022-08-01T03:01:32;1999.90;;;999.90;;
1523;SDS011;755;53.658;10.118;2022-08-01T03:11:38;1999.90;;;999.90;;
1523;SDS011;755;53.658;10.118;2022-08-01T03:21:45;1999.90;;;999.90;;
1523;SDS011;755;53.658;10.118;2022-08-01T03:31:51;1999.90;;;999.90;;
1523;SDS011;755;53.658;10.118;2022-08-01T03:41:56;1999.90;;;999.90;;
1523;SDS011;755;53.658;10.118;2022-08-01T03:52:08;1999.90;;;999.90;;
1523;SDS011;755;53.658;10.118;2022-08-01T04:02:29;1999.90;;;999.90;;
1523;SDS011;755;53.658;10.118;2022-08-01T04:12:46;1999.90;;;999.90;;
1523;SDS011;755;53.658;10.118;2022-08-01T04:22:48;1999.90;;;999.90;;
1523;SDS011;755;53.658;10.118;2022-08-01T04:43:53;1999.90;;;999.90;;
1523;SDS011;755;53.658;10.118;2022-08-01T04:54:04;1999.90;;;999.90;;
1523;SDS011;755;53.658;10.118;2022-08-01T05:04:18;1999.90;;;999.90;;
1523;SDS011;755;53.658;10.118;2022-08-01T05:14:23;1999.90;;;999.90;;
1523;SDS011;755;53.658;10.118;2022-08-01T05:24:33;1999.90;;;999.90;;
1523;SDS011;755;53.658;10.118;2022-08-01T05:34:38;1999.90;;;999.90;;
1523;SDS011;755;53.658;10.118;2022-08-01T05:44:41;1999.90;;;999.90;;
1523;SDS011;755;53.658;10.118;2022-08-01T05:54:53;1999.90;;;999.90;;
1523;SDS011;755;53.658;10.118;2022-08-01T06:04:55;1999.90;;;999.90;;
1523;SDS011;755;53.658;10.118;2022-08-01T06:14:59;1999.90;;;999.90;;
1523;SDS011;755;53.658;10.118;2022-08-01T06:25:02;1999.90;;;999.90;;
1523;SDS011;755;53.658;10.118;2022-08-01T06:35:08;1999.90;;;999.90;;
1523;SDS011;755;53.658;10.118;2022-08-01T06:45:14;1999.90;;;999.90;;
1523;SDS011;755;53.658;10.118;2022-08-01T06:55:18;1999.90;;;999.90;;
1523;SDS011;755;53.658;10.118;2022-08-01T07:05:22;1999.90;;;999.90;;
1523;SDS011;755;53.658;10.118;2022-08-01T07:15:50;1999.90;;;999.90;;
1523;SDS011;755;53.658;10.118;2022-08-01T07:25:54;1999.90;;;999.90;;
1523;SDS011;755;53.658;10.118;2022-08-01T07:46:29;1999.90;;;999.90;;
1523;SDS011;755;53.658;10.118;2022-08-01T07:56:34;1999.90;;;999.90;;
1523;SDS011;755;53.658;10.118;2022-08-01T08:06:55;1999.90;;;999.90;;
1523;SDS011;755;53.658;10.118;2022-08-01T08:16:59;1999.90;;;999.90;;
1523;SDS011;755;53.658;10.118;2022-08-01T08:27:02;1999.90;;;999.90;;
1523;SDS011;755;53.658;10.118;2022-08-01T08:37:08;1999.90;;;999.90;;
1523;SDS011;755;53.658;10.118;2022-08-01T08:47:15;1999.90;;;999.90;;
1523;SDS011;755;53.658;10.118;2022-08-01T09:07:45;113.00;;;105.35;;
1523;SDS011;755;53.658;10.118;2022-08-01T09:17:52;94.38;;;88.53;;
1523;SDS011;755;53.658;10.118;2022-08-01T09:28:26;50.25;;;46.97;;
1523;SDS011;755;53.658;10.118;2022-08-01T09:38:50;65.55;;;61.17;;
1523;SDS011;755;53.658;10.118;2022-08-01T09:49:10;147.45;;;138.38;;
1523;SDS011;755;53.658;10.118;2022-08-01T09:59:12;1048.70;;;545.63;;
1523;SDS011;755;53.658;10.118;2022-08-01T10:09:19;68.85;;;62.78;;
1523;SDS011;755;53.658;10.118;2022-08-01T10:19:29;55.40;;;51.58;;
1523;SDS011;755;53.658;10.118;2022-08-01T10:29:36;59.42;;;54.90;;
1523;SDS011;755;53.658;10.118;2022-08-01T10:39:42;40.70;;;38.15;;
1523;SDS011;755;53.658;10.118;2022-08-01T10:49:47;59.80;;;55.80;;
1523;SDS011;755;53.658;10.118;2022-08-01T10:59:54;47.80;;;44.55;;
1523;SDS011;755;53.658;10.118;2022-08-01T11:10:04;58.00;;;53.92;;
1523;SDS011;755;53.658;10.118;2022-08-01T11:20:11;66.13;;;61.40;;
1523;SDS011;755;53.658;10.118;2022-08-01T11:30:25;51.90;;;47.63;;
1523;SDS011;755;53.658;10.118;2022-08-01T11:40:27;44.65;;;41.72;;
1523;SDS011;755;53.658;10.118;2022-08-01T11:50:33;44.13;;;41.10;;
1523;SDS011;755;53.658;10.118;2022-08-01T12:10:40;50.30;;;46.40;;
1523;SDS011;755;53.658;10.118;2022-08-01T12:20:50;46.17;;;43.08;;
1523;SDS011;755;53.658;10.118;2022-08-01T12:30:54;128.57;;;119.65;;
1523;SDS011;755;53.658;10.118;2022-08-01T12:40:56;42.88;;;40.10;;
1523;SDS011;755;53.658;10.118;2022-08-01T12:50:59;48.97;;;45.90;;
1523;SDS011;755;53.658;10.118;2022-08-01T13:01:04;42.42;;;39.15;;
1523;SDS011;755;53.658;10.118;2022-08-01T13:11:08;38.17;;;35.58;;
1523;SDS011;755;53.658;10.118;2022-08-01T13:21:14;27.63;;;25.88;;
1523;SDS011;755;53.658;10.118;2022-08-01T13:31:18;30.33;;;28.00;;
1523;SDS011;755;53.658;10.118;2022-08-01T13:41:20;32.60;;;30.15;;
1523;SDS011;755;53.658;10.118;2022-08-01T13:51:24;32.15;;;29.63;;
1523;SDS011;755;53.658;10.118;2022-08-01T14:01:26;32.53;;;29.95;;
1523;SDS011;755;53.658;10.118;2022-08-01T14:11:29;35.72;;;33.45;;
1523;SDS011;755;53.658;10.118;2022-08-01T14:21:31;31.92;;;29.48;;
1523;SDS011;755;53.658;10.118;2022-08-01T14:31:35;33.35;;;31.08;;
1523;SDS011;755;53.658;10.118;2022-08-01T14:41:37;31.02;;;28.90;;
1523;SDS011;755;53.658;10.118;2022-08-01T14:51:40;39.78;;;36.92;;
1523;SDS011;755;53.658;10.118;2022-08-01T15:01:42;43.85;;;40.85;;
1523;SDS011;755;53.658;10.118;2022-08-01T15:11:45;29.05;;;26.88;;
1523;SDS011;755;53.658;10.118;2022-08-01T15:21:48;27.05;;;25.00;;
1523;SDS011;755;53.658;10.118;2022-08-01T15:31:51;30.80;;;28.65;;
1523;SDS011;755;53.658;10.118;2022-08-01T15:41:53;33.13;;;30.65;;
1523;SDS011;755;53.658;10.118;2022-08-01T15:51:56;29.92;;;27.85;;
1523;SDS011;755;53.658;10.118;2022-08-01T16:01:59;31.33;;;29.13;;
1523;SDS011;755;53.658;10.118;2022-08-01T16:12:02;35.35;;;33.00;;
1523;SDS011;755;53.658;10.118;2022-08-01T16:22:04;1509.53;;;758.75;;
1523;SDS011;755;53.658;10.118;2022-08-01T16:32:07;32.30;;;29.63;;
1523;SDS011;755;53.658;10.118;2022-08-01T16:42:10;1999.90;;;999.90;;
1523;SDS011;755;53.658;10.118;2022-08-01T16:52:13;1999.90;;;999.90;;
1523;SDS011;755;53.658;10.118;2022-08-01T17:02:15;1999.90;;;999.90;;
1523;SDS011;755;53.658;10.118;2022-08-01T17:12:18;1999.90;;;999.90;;
1523;SDS011;755;53.658;10.118;2022-08-01T17:22:20;1999.90;;;999.90;;
1523;SDS011;755;53.658;10.118;2022-08-01T17:32:24;1999.90;;;999.90;;
1523;SDS011;755;53.658;10.118;2022-08-01T17:42:26;1999.90;;;999.90;;
1523;SDS011;755;53.658;10.118;2022-08-01T18:02:34;1999.90;;;999.90;;
1523;SDS011;755;53.658;10.118;2022-08-01T18:12:37;1999.90;;;999.90;;
1523;SDS011;755;53.658;10.118;2022-08-01T18:22:39;1999.90;;;999.90;;
1523;SDS011;755;53.658;10.118;2022-08-01T18:32:43;1999.90;;;999.90;;
1523;SDS011;755;53.658;10.118;2022-08-01T18:42:45;1999.90;;;999.90;;
1523;SDS011;755;53.658;10.118;2022-08-01T18:52:48;1999.90;;;999.90;;
1523;SDS011;755;53.658;10.118;2022-08-01T19:02:50;1999.90;;;999.90;;
1523;SDS011;755;53.658;10.118;2022-08-01T19:12:54;1999.90;;;999.90;;
1523;SDS011;755;53.658;10.118;2022-08-01T19:22:56;1999.90;;;999.90;;
1523;SDS011;755;53.658;10.118;2022-08-01T19:33:00;1999.90;;;999.90;;
1523;SDS011;755;53.658;10.118;2022-08-01T19:43:02;1999.90;;;999.90;;
1523;SDS011;755;53.658;10.118;2022-08-01T19:53:07;1999.90;;;999.90;;
1523;SDS011;755;53.658;10.118;2022-08-01T20:03:11;1999.90;;;999.90;;
1523;SDS011;755;53.658;10.118;2022-08-01T20:13:19;1999.90;;;999.90;;
1523;SDS011;755;53.658;10.118;2022-08-01T20:23:22;1999.90;;;999.90;;
1523;SDS011;755;53.658;10.118;2022-08-01T20:33:27;1999.90;;;999.90;;
1523;SDS011;755;53.658;10.118;2022-08-01T20:43:30;1999.90;;;999.90;;
1523;SDS011;755;53.658;10.118;2022-08-01T20:53:34;1999.90;;;999.90;;
1523;SDS011;755;53.658;10.118;2022-08-01T21:03:41;1999.90;;;999.90;;
1523;SDS011;755;53.658;10.118;2022-08-01T21:13:58;1999.90;;;999.90;;
1523;SDS011;755;53.658;10.118;2022-08-01T21:24:05;1999.90;;;999.90;;
1523;SDS011;755;53.658;10.118;2022-08-01T21:34:17;1999.90;;;999.90;;
1523;SDS011;755;53.658;10.118;2022-08-01T21:44:19;1999.90;;;999.90;;
1523;SDS011;755;53.658;10.118;2022-08-01T21:54:27;1999.90;;;999.90;;
1523;SDS011;755;53.658;10.118;2022-08-01T22:04:39;1999.90;;;999.90;;
1523;SDS011;755;53.658;10.118;2022-08-01T22:14:46;1999.90;;;999.90;;
1523;SDS011;755;53.658;10.118;2022-08-01T22:24:50;1999.90;;;999.90;;
1523;SDS011;755;53.658;10.118;2022-08-01T22:34:54;1999.90;;;999.90;;
1523;SDS011;755;53.658;10.118;2022-08-01T22:44:59;1999.90;;;999.90;;
1523;SDS011;755;53.658;10.118;2022-08-01T22:55:07;1999.90;;;999.90;;
1523;SDS011;755;53.658;10.118;2022-08-01T23:05:10;1999.90;;;999.90;;
1523;SDS011;755;53.658;10.118;2022-08-01T23:15:17;1999.90;;;999.90;;
1523;SDS011;755;53.658;10.118;2022-08-01T23:25:20;1999.90;;;999.90;;
1523;SDS011;755;53.658;10.118;2022-08-01T23:35:25;1999.90;;;999.90;;
1523;SDS011;755;53.658;10.118;2022-08-01T23:45:28;1999.90;;;999.90;;
1523;SDS011;755;53.658;10.118;2022-08-01T23:55:31;1999.90;;;999.90;;
